sensor_id;sensor_type;location;lat;lon;timestamp;pressure;altitude;pressure_sealevel;temperature;humidity
78383;BME280;67668;52.294;4.692;2023-02-15T00:00:08;103017.97;;;7.22;68.46
78383;BME280;67668;52.294;4.692;2023-02-15T00:02:35;103012.84;;;7.19;68.44
78383;BME280;67668;52.294;4.692;2023-02-15T00:05:01;103005.91;;;7.16;68.65
78383;BME280;67668;52.294;4.692;2023-02-15T00:07:26;102998.97;;;7.15;68.29
78383;BME280;67668;52.294;4.692;2023-02-15T00:09:52;102999.00;;;7.14;68.91
78383;BME280;67668;52.294;4.692;2023-02-15T00:12:17;102995.66;;;7.10;68.21
78383;BME280;67668;52.294;4.692;2023-02-15T00:14:42;102986.03;;;7.09;69.31
78383;BME280;67668;52.294;4.692;2023-02-15T00:17:08;102977.34;;;7.07;68.85
78383;BME280;67668;52.294;4.692;2023-02-15T00:19:33;102979.22;;;7.05;69.29
78383;BME280;67668;52.294;4.692;2023-02-15T00:22:00;102978.50;;;7.02;69.21
78383;BME280;67668;52.294;4.692;2023-02-15T00:24:26;102978.53;;;7.00;69.00
78383;BME280;67668;52.294;4.692;2023-02-15T00:26:51;102974.22;;;6.99;69.31
78383;BME280;67668;52.294;4.692;2023-02-15T00:29:18;102970.00;;;6.95;69.57
78383;BME280;67668;52.294;4.692;2023-02-15T00:31:43;102966.50;;;6.95;68.68
78383;BME280;67668;52.294;4.692;2023-02-15T00:34:18;102959.59;;;6.92;69.84
78383;BME280;67668;52.294;4.692;2023-02-15T00:36:44;102962.28;;;6.91;69.01
78383;BME280;67668;52.294;4.692;2023-02-15T00:39:11;102967.66;;;6.89;68.99
78383;BME280;67668;52.294;4.692;2023-02-15T00:41:36;102965.06;;;6.88;68.74
78383;BME280;67668;52.294;4.692;2023-02-15T00:44:02;102954.66;;;6.85;68.68
78383;BME280;67668;52.294;4.692;2023-02-15T00:46:28;102965.19;;;6.85;69.51
78383;BME280;67668;52.294;4.692;2023-02-15T00:48:55;102958.28;;;6.82;69.49
78383;BME280;67668;52.294;4.692;2023-02-15T00:51:20;102957.47;;;6.80;70.10
78383;BME280;67668;52.294;4.692;2023-02-15T00:53:46;102963.75;;;6.78;69.96
78383;BME280;67668;52.294;4.692;2023-02-15T00:56:11;102958.63;;;6.74;69.83
78383;BME280;67668;52.294;4.692;2023-02-15T00:58:37;102963.00;;;6.74;69.81
78383;BME280;67668;52.294;4.692;2023-02-15T01:03:38;102954.47;;;6.69;69.21
78383;BME280;67668;52.294;4.692;2023-02-15T01:06:04;102947.53;;;6.66;69.76
78383;BME280;67668;52.294;4.692;2023-02-15T01:08:30;102955.44;;;6.66;69.38
78383;BME280;67668;52.294;4.692;2023-02-15T01:10:55;102952.94;;;6.63;69.29
78383;BME280;67668;52.294;4.692;2023-02-15T01:13:21;102954.78;;;6.61;69.19
78383;BME280;67668;52.294;4.692;2023-02-15T01:15:52;102947.88;;;6.59;69.95
78383;BME280;67668;52.294;4.692;2023-02-15T01:18:18;102948.81;;;6.58;69.80
78383;BME280;67668;52.294;4.692;2023-02-15T01:20:43;102943.59;;;6.56;69.56
78383;BME280;67668;52.294;4.692;2023-02-15T01:23:09;102939.31;;;6.54;68.97
78383;BME280;67668;52.294;4.692;2023-02-15T01:25:35;102930.66;;;6.52;69.98
78383;BME280;67668;52.294;4.692;2023-02-15T01:28:01;102927.22;;;6.50;69.37
78383;BME280;67668;52.294;4.692;2023-02-15T01:30:27;102923.78;;;6.48;69.33
78383;BME280;67668;52.294;4.692;2023-02-15T01:32:53;102934.41;;;6.46;68.79
78383;BME280;67668;52.294;4.692;2023-02-15T01:35:18;102921.28;;;6.45;69.37
78383;BME280;67668;52.294;4.692;2023-02-15T01:37:43;102925.78;;;6.43;69.40
78383;BME280;67668;52.294;4.692;2023-02-15T01:40:13;102923.31;;;6.38;69.17
78383;BME280;67668;52.294;4.692;2023-02-15T01:42:39;102918.13;;;6.37;68.96
78383;BME280;67668;52.294;4.692;2023-02-15T01:45:22;102918.19;;;6.35;69.44
78383;BME280;67668;52.294;4.692;2023-02-15T01:53:17;102913.19;;;6.29;69.08
78383;BME280;67668;52.294;4.692;2023-02-15T01:55:47;102917.59;;;6.29;69.19
78383;BME280;67668;52.294;4.692;2023-02-15T01:58:15;102911.59;;;6.25;69.84
78383;BME280;67668;52.294;4.692;2023-02-15T02:00:41;102911.66;;;6.23;69.31
78383;BME280;67668;52.294;4.692;2023-02-15T02:03:07;102911.75;;;6.22;69.81
78383;BME280;67668;52.294;4.692;2023-02-15T02:05:32;102912.72;;;6.19;69.68
78383;BME280;67668;52.294;4.692;2023-02-15T02:07:59;102915.41;;;6.18;69.77
78383;BME280;67668;52.294;4.692;2023-02-15T02:10:26;102915.44;;;6.16;69.37
78383;BME280;67668;52.294;4.692;2023-02-15T02:12:54;102916.44;;;6.14;69.57
78383;BME280;67668;52.294;4.692;2023-02-15T02:18:29;102908.69;;;6.11;69.04
78383;BME280;67668;52.294;4.692;2023-02-15T02:24:02;102904.47;;;6.07;69.24
78383;BME280;67668;52.294;4.692;2023-02-15T02:38:27;102878.69;;;5.95;69.79
78383;BME280;67668;52.294;4.692;2023-02-15T02:45:58;102866.66;;;5.89;69.76
78383;BME280;67668;52.294;4.692;2023-02-15T02:48:28;102859.72;;;5.87;69.66
78383;BME280;67668;52.294;4.692;2023-02-15T02:50:55;102853.66;;;5.85;69.93
78383;BME280;67668;52.294;4.692;2023-02-15T02:53:20;102859.00;;;5.83;70.61
78383;BME280;67668;52.294;4.692;2023-02-15T02:55:51;102852.03;;;5.82;71.23
78383;BME280;67668;52.294;4.692;2023-02-15T03:03:26;102836.44;;;5.78;71.79
78383;BME280;67668;52.294;4.692;2023-02-15T03:05:59;102832.16;;;5.75;72.38
78383;BME280;67668;52.294;4.692;2023-02-15T03:08:31;102839.13;;;5.76;72.74
78383;BME280;67668;52.294;4.692;2023-02-15T03:10:59;102838.28;;;5.76;72.30
78383;BME280;67668;52.294;4.692;2023-02-15T03:13:26;102836.56;;;5.74;72.77
78383;BME280;67668;52.294;4.692;2023-02-15T03:15:52;102838.41;;;5.72;73.21
78383;BME280;67668;52.294;4.692;2023-02-15T03:18:44;102836.56;;;5.74;72.60
78383;BME280;67668;52.294;4.692;2023-02-15T03:21:20;102839.19;;;5.74;72.75
78383;BME280;67668;52.294;4.692;2023-02-15T03:23:54;102833.16;;;5.72;72.52
78383;BME280;67668;52.294;4.692;2023-02-15T03:26:23;102839.19;;;5.74;72.70
78383;BME280;67668;52.294;4.692;2023-02-15T03:28:50;102827.91;;;5.72;73.22
78383;BME280;67668;52.294;4.692;2023-02-15T03:31:20;102834.00;;;5.73;72.63
78383;BME280;67668;52.294;4.692;2023-02-15T03:34:00;102827.91;;;5.72;72.93
78383;BME280;67668;52.294;4.692;2023-02-15T03:39:04;102820.78;;;5.74;73.14
78383;BME280;67668;52.294;4.692;2023-02-15T03:41:34;102813.78;;;5.75;73.23
78383;BME280;67668;52.294;4.692;2023-02-15T03:44:16;102813.00;;;5.73;73.09
78383;BME280;67668;52.294;4.692;2023-02-15T03:46:48;102817.50;;;5.69;73.38
78383;BME280;67668;52.294;4.692;2023-02-15T03:49:21;102808.69;;;5.70;73.35
78383;BME280;67668;52.294;4.692;2023-02-15T03:51:50;102807.88;;;5.70;73.45
78383;BME280;67668;52.294;4.692;2023-02-15T03:54:20;102807.19;;;5.65;74.09
78383;BME280;67668;52.294;4.692;2023-02-15T03:57:07;102801.28;;;5.60;74.67
78383;BME280;67668;52.294;4.692;2023-02-15T03:59:52;102799.59;;;5.57;74.63
78383;BME280;67668;52.294;4.692;2023-02-15T04:02:41;102787.53;;;5.53;74.66
78383;BME280;67668;52.294;4.692;2023-02-15T04:05:10;102789.34;;;5.51;75.25
78383;BME280;67668;52.294;4.692;2023-02-15T04:07:35;102784.22;;;5.48;74.86
78383;BME280;67668;52.294;4.692;2023-02-15T04:10:01;102790.38;;;5.47;75.31
78383;BME280;67668;52.294;4.692;2023-02-15T04:12:45;102796.38;;;5.51;74.97
78383;BME280;67668;52.294;4.692;2023-02-15T04:15:13;102793.88;;;5.48;75.22
78383;BME280;67668;52.294;4.692;2023-02-15T04:17:57;102784.34;;;5.45;74.91
78383;BME280;67668;52.294;4.692;2023-02-15T04:20:22;102781.78;;;5.44;75.29
78383;BME280;67668;52.294;4.692;2023-02-15T04:23:07;102782.72;;;5.43;75.22
78383;BME280;67668;52.294;4.692;2023-02-15T04:25:51;102782.84;;;5.40;75.48
78383;BME280;67668;52.294;4.692;2023-02-15T04:28:17;102775.00;;;5.38;75.58
78383;BME280;67668;52.294;4.692;2023-02-15T04:30:42;102770.66;;;5.37;75.85
78383;BME280;67668;52.294;4.692;2023-02-15T04:33:08;102769.75;;;5.38;75.47
78383;BME280;67668;52.294;4.692;2023-02-15T04:35:33;102765.41;;;5.37;75.68
78383;BME280;67668;52.294;4.692;2023-02-15T04:37:59;102760.16;;;5.37;75.30
78383;BME280;67668;52.294;4.692;2023-02-15T04:40:25;102757.66;;;5.34;75.91
78383;BME280;67668;52.294;4.692;2023-02-15T04:42:50;102766.47;;;5.33;75.86
78383;BME280;67668;52.294;4.692;2023-02-15T04:45:16;102768.16;;;5.34;75.32
78383;BME280;67668;52.294;4.692;2023-02-15T04:47:42;102766.47;;;5.33;76.14
78383;BME280;67668;52.294;4.692;2023-02-15T04:50:07;102762.16;;;5.31;75.99
78383;BME280;67668;52.294;4.692;2023-02-15T04:52:33;102761.44;;;5.27;75.82
78383;BME280;67668;52.294;4.692;2023-02-15T04:54:58;102760.72;;;5.24;76.31
78383;BME280;67668;52.294;4.692;2023-02-15T04:57:24;102758.09;;;5.24;76.06
78383;BME280;67668;52.294;4.692;2023-02-15T04:59:49;102756.44;;;5.21;75.90
78383;BME280;67668;52.294;4.692;2023-02-15T05:02:14;102755.53;;;5.22;75.97
78383;BME280;67668;52.294;4.692;2023-02-15T05:04:40;102754.63;;;5.23;76.30
78383;BME280;67668;52.294;4.692;2023-02-15T05:07:05;102746.78;;;5.21;76.09
78383;BME280;67668;52.294;4.692;2023-02-15T05:09:31;102751.19;;;5.21;75.98
78383;BME280;67668;52.294;4.692;2023-02-15T05:11:56;102750.31;;;5.20;76.05
78383;BME280;67668;52.294;4.692;2023-02-15T05:14:21;102748.50;;;5.22;76.27
78383;BME280;67668;52.294;4.692;2023-02-15T05:16:47;102746.75;;;5.23;76.36
78383;BME280;67668;52.294;4.692;2023-02-15T05:19:13;102753.03;;;5.19;76.34
78383;BME280;67668;52.294;4.692;2023-02-15T05:21:39;102751.31;;;5.18;76.29
78383;BME280;67668;52.294;4.692;2023-02-15T05:24:05;102752.28;;;5.15;76.21
78383;BME280;67668;52.294;4.692;2023-02-15T05:26:50;102758.44;;;5.14;76.85
78383;BME280;67668;52.294;4.692;2023-02-15T05:29:34;102752.34;;;5.14;76.90
78383;BME280;67668;52.294;4.692;2023-02-15T05:31:59;102757.72;;;5.11;77.12
78383;BME280;67668;52.294;4.692;2023-02-15T05:34:25;102755.22;;;5.08;76.47
78383;BME280;67668;52.294;4.692;2023-02-15T05:36:50;102756.06;;;5.08;76.81
78383;BME280;67668;52.294;4.692;2023-02-15T05:39:16;102753.44;;;5.08;76.57
78383;BME280;67668;52.294;4.692;2023-02-15T05:41:41;102755.22;;;5.08;76.82
78383;BME280;67668;52.294;4.692;2023-02-15T05:44:06;102749.97;;;5.08;76.52
78383;BME280;67668;52.294;4.692;2023-02-15T05:46:32;102751.78;;;5.06;76.59
78383;BME280;67668;52.294;4.692;2023-02-15T05:48:57;102752.78;;;5.03;76.54
78383;BME280;67668;52.294;4.692;2023-02-15T05:51:23;102751.06;;;5.02;76.89
78383;BME280;67668;52.294;4.692;2023-02-15T05:53:48;102744.09;;;5.01;76.51
78383;BME280;67668;52.294;4.692;2023-02-15T05:56:13;102739.69;;;5.02;76.35
78383;BME280;67668;52.294;4.692;2023-02-15T05:58:40;102737.97;;;5.01;76.57
78383;BME280;67668;52.294;4.692;2023-02-15T06:01:09;102737.03;;;5.03;76.47
78383;BME280;67668;52.294;4.692;2023-02-15T06:03:35;102742.31;;;5.02;76.32
78383;BME280;67668;52.294;4.692;2023-02-15T06:06:00;102725.69;;;5.03;76.40
78383;BME280;67668;52.294;4.692;2023-02-15T06:08:26;102730.06;;;5.02;76.49
78383;BME280;67668;52.294;4.692;2023-02-15T06:10:51;102724.03;;;5.00;76.59
78383;BME280;67668;52.294;4.692;2023-02-15T06:13:16;102732.75;;;5.01;76.53
78383;BME280;67668;52.294;4.692;2023-02-15T06:15:42;102727.50;;;5.01;76.65
78383;BME280;67668;52.294;4.692;2023-02-15T06:18:07;102728.31;;;5.03;76.45
78383;BME280;67668;52.294;4.692;2023-02-15T06:20:33;102728.47;;;4.98;76.54
78383;BME280;67668;52.294;4.692;2023-02-15T06:22:58;102728.44;;;5.00;76.60
78383;BME280;67668;52.294;4.692;2023-02-15T06:25:23;102731.97;;;4.99;76.86
78383;BME280;67668;52.294;4.692;2023-02-15T06:27:49;102720.72;;;4.95;76.49
78383;BME280;67668;52.294;4.692;2023-02-15T06:30:15;102720.88;;;4.91;76.61
78383;BME280;67668;52.294;4.692;2023-02-15T06:32:40;102724.56;;;4.87;77.04
78383;BME280;67668;52.294;4.692;2023-02-15T06:35:06;102730.75;;;4.84;77.21
78383;BME280;67668;52.294;4.692;2023-02-15T06:37:32;102733.34;;;4.86;76.41
78383;BME280;67668;52.294;4.692;2023-02-15T06:39:57;102732.66;;;4.81;76.65
78383;BME280;67668;52.294;4.692;2023-02-15T06:42:24;102727.41;;;4.81;77.12
78383;BME280;67668;52.294;4.692;2023-02-15T06:44:49;102721.25;;;4.82;76.41
78383;BME280;67668;52.294;4.692;2023-02-15T06:47:15;102733.50;;;4.81;76.61
78383;BME280;67668;52.294;4.692;2023-02-15T06:49:40;102732.75;;;4.78;76.63
78383;BME280;67668;52.294;4.692;2023-02-15T06:52:06;102727.53;;;4.78;76.58
78383;BME280;67668;52.294;4.692;2023-02-15T06:54:31;102722.41;;;4.75;76.45
78383;BME280;67668;52.294;4.692;2023-02-15T06:56:56;102725.25;;;4.68;77.33
78383;BME280;67668;52.294;4.692;2023-02-15T06:59:22;102720.13;;;4.65;77.00
78383;BME280;67668;52.294;4.692;2023-02-15T07:01:47;102727.22;;;4.63;77.13
78383;BME280;67668;52.294;4.692;2023-02-15T07:04:14;102726.22;;;4.66;77.31
78383;BME280;67668;52.294;4.692;2023-02-15T07:06:39;102723.53;;;4.67;76.58
78383;BME280;67668;52.294;4.692;2023-02-15T07:09:05;102722.75;;;4.65;76.51
78383;BME280;67668;52.294;4.692;2023-02-15T07:11:30;102720.13;;;4.65;76.57
78383;BME280;67668;52.294;4.692;2023-02-15T07:14:16;102727.00;;;4.68;75.88
78383;BME280;67668;52.294;4.692;2023-02-15T07:16:41;102713.13;;;4.66;76.32
78383;BME280;67668;52.294;4.692;2023-02-15T07:19:07;102721.84;;;4.66;75.97
78383;BME280;67668;52.294;4.692;2023-02-15T07:21:34;102720.13;;;4.65;76.43
78383;BME280;67668;52.294;4.692;2023-02-15T07:24:00;102720.28;;;4.61;76.71
78383;BME280;67668;52.294;4.692;2023-02-15T07:26:25;102712.50;;;4.59;76.78
78383;BME280;67668;52.294;4.692;2023-02-15T07:28:50;102709.00;;;4.59;76.94
78383;BME280;67668;52.294;4.692;2023-02-15T07:31:16;102710.84;;;4.57;76.88
78383;BME280;67668;52.294;4.692;2023-02-15T07:33:41;102706.44;;;4.57;76.71
78383;BME280;67668;52.294;4.692;2023-02-15T07:36:07;102710.09;;;4.53;76.83
78383;BME280;67668;52.294;4.692;2023-02-15T07:38:36;102704.13;;;4.50;77.23
78383;BME280;67668;52.294;4.692;2023-02-15T07:41:04;102695.50;;;4.46;77.48
78383;BME280;67668;52.294;4.692;2023-02-15T07:43:32;102694.66;;;4.46;77.18
78383;BME280;67668;52.294;4.692;2023-02-15T07:46:01;102680.66;;;4.47;77.37
78383;BME280;67668;52.294;4.692;2023-02-15T07:48:27;102691.00;;;4.50;77.47
78383;BME280;67668;52.294;4.692;2023-02-15T07:50:53;102691.19;;;4.45;77.63
78383;BME280;67668;52.294;4.692;2023-02-15T07:53:18;102691.06;;;4.48;77.68
78383;BME280;67668;52.294;4.692;2023-02-15T07:55:44;102689.28;;;4.49;77.30
78383;BME280;67668;52.294;4.692;2023-02-15T07:58:09;102681.28;;;4.53;77.08
78383;BME280;67668;52.294;4.692;2023-02-15T08:00:34;102678.66;;;4.53;77.23
78383;BME280;67668;52.294;4.692;2023-02-15T08:03:23;102687.31;;;4.55;77.19
78383;BME280;67668;52.294;4.692;2023-02-15T08:05:49;102680.41;;;4.53;77.25
78383;BME280;67668;52.294;4.692;2023-02-15T08:08:15;102676.97;;;4.51;77.24
78383;BME280;67668;52.294;4.692;2023-02-15T08:11:04;102665.81;;;4.46;77.50
78383;BME280;67668;52.294;4.692;2023-02-15T08:13:53;102674.91;;;4.37;77.70
78383;BME280;67668;52.294;4.692;2023-02-15T08:16:26;102660.94;;;4.37;77.98
78383;BME280;67668;52.294;4.692;2023-02-15T08:18:53;102658.25;;;4.38;78.00
78383;BME280;67668;52.294;4.692;2023-02-15T08:21:19;102665.94;;;4.43;78.12
78383;BME280;67668;52.294;4.692;2023-02-15T08:23:45;102657.91;;;4.47;78.22
78383;BME280;67668;52.294;4.692;2023-02-15T08:26:11;102664.84;;;4.48;77.87
78383;BME280;67668;52.294;4.692;2023-02-15T08:28:36;102670.94;;;4.49;77.92
78383;BME280;67668;52.294;4.692;2023-02-15T08:31:06;102674.34;;;4.51;77.57
78383;BME280;67668;52.294;4.692;2023-02-15T08:33:32;102677.16;;;4.46;78.25
78383;BME280;67668;52.294;4.692;2023-02-15T08:36:02;102680.56;;;4.48;77.83
78383;BME280;67668;52.294;4.692;2023-02-15T08:38:27;102675.44;;;4.45;78.21
78383;BME280;67668;52.294;4.692;2023-02-15T08:40:53;102673.63;;;4.47;78.69
78383;BME280;67668;52.294;4.692;2023-02-15T08:43:18;102680.53;;;4.50;78.53
78383;BME280;67668;52.294;4.692;2023-02-15T08:45:43;102675.28;;;4.50;78.33
78383;BME280;67668;52.294;4.692;2023-02-15T08:48:09;102685.56;;;4.54;78.12
78383;BME280;67668;52.294;4.692;2023-02-15T08:50:34;102678.41;;;4.59;78.11
78383;BME280;67668;52.294;4.692;2023-02-15T08:53:00;102668.81;;;4.58;78.74
78383;BME280;67668;52.294;4.692;2023-02-15T08:55:25;102673.03;;;4.62;78.15
78383;BME280;67668;52.294;4.692;2023-02-15T08:57:50;102664.28;;;4.63;78.52
78383;BME280;67668;52.294;4.692;2023-02-15T09:00:17;102668.53;;;4.66;78.22
78383;BME280;67668;52.294;4.692;2023-02-15T09:02:43;102664.03;;;4.69;78.45
78383;BME280;67668;52.294;4.692;2023-02-15T09:05:08;102670.19;;;4.68;78.10
78383;BME280;67668;52.294;4.692;2023-02-15T09:07:35;102669.16;;;4.73;78.07
78383;BME280;67668;52.294;4.692;2023-02-15T09:10:00;102680.31;;;4.78;77.93
78383;BME280;67668;52.294;4.692;2023-02-15T09:12:26;102669.66;;;4.82;77.97
78383;BME280;67668;52.294;4.692;2023-02-15T09:14:51;102677.34;;;4.87;78.25
78383;BME280;67668;52.294;4.692;2023-02-15T09:17:16;102671.03;;;4.91;78.39
78383;BME280;67668;52.294;4.692;2023-02-15T09:19:42;102680.47;;;4.96;77.83
78383;BME280;67668;52.294;4.692;2023-02-15T09:22:07;102679.44;;;5.00;77.95
78383;BME280;67668;52.294;4.692;2023-02-15T09:24:33;102674.06;;;5.03;78.12
78383;BME280;67668;52.294;4.692;2023-02-15T09:26:59;102670.56;;;5.03;78.45
78383;BME280;67668;52.294;4.692;2023-02-15T09:29:24;102662.56;;;5.06;77.74
78383;BME280;67668;52.294;4.692;2023-02-15T09:31:50;102663.22;;;5.11;77.51
78383;BME280;67668;52.294;4.692;2023-02-15T09:34:19;102660.44;;;5.15;77.04
78383;BME280;67668;52.294;4.692;2023-02-15T09:36:45;102645.41;;;5.19;77.47
78383;BME280;67668;52.294;4.692;2023-02-15T09:39:39;102653.13;;;5.24;77.60
78383;BME280;67668;52.294;4.692;2023-02-15T09:52:53;102648.72;;;5.44;77.98
78383;BME280;67668;52.294;4.692;2023-02-15T10:01:59;102654.66;;;5.69;78.04
78383;BME280;67668;52.294;4.692;2023-02-15T10:04:40;102654.38;;;5.76;77.25
78383;BME280;67668;52.294;4.692;2023-02-15T10:07:31;102654.06;;;5.83;76.96
78383;BME280;67668;52.294;4.692;2023-02-15T10:15:49;102649.50;;;6.07;77.19
78383;BME280;67668;52.294;4.692;2023-02-15T10:26:25;102652.31;;;6.41;75.70
78383;BME280;67668;52.294;4.692;2023-02-15T10:28:55;102659.78;;;6.50;76.09
78383;BME280;67668;52.294;4.692;2023-02-15T10:31:47;102655.09;;;6.57;75.40
78383;BME280;67668;52.294;4.692;2023-02-15T10:34:37;102650.38;;;6.63;75.03
78383;BME280;67668;52.294;4.692;2023-02-15T10:39:49;102640.56;;;6.86;75.16
78383;BME280;67668;52.294;4.692;2023-02-15T10:47:41;102627.00;;;7.12;74.58
78383;BME280;67668;52.294;4.692;2023-02-15T10:50:43;102629.16;;;7.21;74.70
78383;BME280;67668;52.294;4.692;2023-02-15T10:56:24;102622.72;;;7.44;73.76
78383;BME280;67668;52.294;4.692;2023-02-15T11:05:17;102600.94;;;7.74;72.66
78383;BME280;67668;52.294;4.692;2023-02-15T11:07:47;102593.44;;;7.82;73.38
78383;BME280;67668;52.294;4.692;2023-02-15T11:10:30;102592.03;;;7.93;72.14
78383;BME280;67668;52.294;4.692;2023-02-15T11:13:03;102580.91;;;8.03;72.48
78383;BME280;67668;52.294;4.692;2023-02-15T11:15:32;102578.63;;;8.13;71.37
78383;BME280;67668;52.294;4.692;2023-02-15T11:18:54;102582.63;;;8.20;71.57
78383;BME280;67668;52.294;4.692;2023-02-15T11:23:19;102574.19;;;8.30;71.34
78383;BME280;67668;52.294;4.692;2023-02-15T11:25:52;102565.91;;;8.37;70.35
78383;BME280;67668;52.294;4.692;2023-02-15T11:28:24;102575.09;;;8.45;71.57
78383;BME280;67668;52.294;4.692;2023-02-15T11:30:55;102577.31;;;8.53;70.96
78383;BME280;67668;52.294;4.692;2023-02-15T11:33:26;102588.38;;;8.59;69.88
78383;BME280;67668;52.294;4.692;2023-02-15T11:35:59;102593.00;;;8.71;70.48
78383;BME280;67668;52.294;4.692;2023-02-15T11:38:28;102599.53;;;8.80;70.27
78383;BME280;67668;52.294;4.692;2023-02-15T11:41:00;102590.88;;;8.92;70.25
78383;BME280;67668;52.294;4.692;2023-02-15T11:45:54;102576.88;;;9.06;70.21
78383;BME280;67668;52.294;4.692;2023-02-15T11:48:19;102578.16;;;9.14;69.76
78383;BME280;67668;52.294;4.692;2023-02-15T11:50:46;102568.91;;;9.21;69.10
78383;BME280;67668;52.294;4.692;2023-02-15T11:53:19;102557.16;;;9.27;68.62
78383;BME280;67668;52.294;4.692;2023-02-15T11:55:53;102572.25;;;9.39;69.07
78383;BME280;67668;52.294;4.692;2023-02-15T11:58:33;102574.16;;;9.51;68.98
78383;BME280;67668;52.294;4.692;2023-02-15T12:01:32;102561.16;;;9.62;68.61
78383;BME280;67668;52.294;4.692;2023-02-15T12:06:44;102543.97;;;9.69;68.28
78383;BME280;67668;52.294;4.692;2023-02-15T12:11:40;102534.16;;;9.85;66.81
78383;BME280;67668;52.294;4.692;2023-02-15T12:14:08;102525.75;;;9.93;68.11
78383;BME280;67668;52.294;4.692;2023-02-15T12:16:41;102529.38;;;10.05;67.58
78383;BME280;67668;52.294;4.692;2023-02-15T12:19:32;102526.75;;;10.19;67.90
78383;BME280;67668;52.294;4.692;2023-02-15T12:21:59;102535.59;;;10.32;66.41
78383;BME280;67668;52.294;4.692;2023-02-15T12:24:38;102543.72;;;10.43;65.37
78383;BME280;67668;52.294;4.692;2023-02-15T12:27:20;102547.06;;;10.59;67.04
78383;BME280;67668;52.294;4.692;2023-02-15T12:30:00;102547.84;;;10.74;64.93
78383;BME280;67668;52.294;4.692;2023-02-15T12:32:31;102545.56;;;10.82;64.74
78383;BME280;67668;52.294;4.692;2023-02-15T12:35:13;102540.81;;;10.87;63.09
78383;BME280;67668;52.294;4.692;2023-02-15T12:37:52;102533.19;;;10.95;63.33
78383;BME280;67668;52.294;4.692;2023-02-15T12:40:24;102534.34;;;11.04;63.72
78383;BME280;67668;52.294;4.692;2023-02-15T12:42:51;102532.06;;;11.12;63.41
78383;BME280;67668;52.294;4.692;2023-02-15T12:45:30;102537.91;;;11.17;62.97
78383;BME280;67668;52.294;4.692;2023-02-15T12:50:39;102536.50;;;11.24;62.97
78383;BME280;67668;52.294;4.692;2023-02-15T12:53:08;102535.47;;;11.26;63.33
78383;BME280;67668;52.294;4.692;2023-02-15T12:55:37;102527.94;;;11.33;63.65
78383;BME280;67668;52.294;4.692;2023-02-15T12:58:41;102522.31;;;11.37;64.28
78383;BME280;67668;52.294;4.692;2023-02-15T13:01:18;102521.16;;;11.41;62.21
78383;BME280;67668;52.294;4.692;2023-02-15T13:04:08;102510.34;;;11.45;62.77
78383;BME280;67668;52.294;4.692;2023-02-15T13:06:46;102510.88;;;11.50;62.77
78383;BME280;67668;52.294;4.692;2023-02-15T13:09:23;102511.31;;;11.56;61.99
78383;BME280;67668;52.294;4.692;2023-02-15T13:11:50;102504.81;;;11.60;61.91
78383;BME280;67668;52.294;4.692;2023-02-15T13:14:21;102500.47;;;11.59;61.27
78383;BME280;67668;52.294;4.692;2023-02-15T13:16:52;102502.06;;;11.62;61.51
78383;BME280;67668;52.294;4.692;2023-02-15T13:19:36;102504.28;;;11.68;61.78
78383;BME280;67668;52.294;4.692;2023-02-15T13:22:05;102501.13;;;11.75;61.26
78383;BME280;67668;52.294;4.692;2023-02-15T13:24:39;102497.63;;;11.75;60.95
78383;BME280;67668;52.294;4.692;2023-02-15T13:27:10;102496.31;;;11.80;62.21
78383;BME280;67668;52.294;4.692;2023-02-15T13:29:38;102489.84;;;11.84;60.58
78383;BME280;67668;52.294;4.692;2023-02-15T13:32:34;102488.69;;;11.88;61.24
78383;BME280;67668;52.294;4.692;2023-02-15T13:35:04;102482.94;;;11.95;61.08
78383;BME280;67668;52.294;4.692;2023-02-15T13:40:37;102480.44;;;12.04;59.22
78383;BME280;67668;52.294;4.692;2023-02-15T13:43:14;102480.22;;;12.07;60.17
78383;BME280;67668;52.294;4.692;2023-02-15T13:46:11;102468.13;;;12.16;61.68
78383;BME280;67668;52.294;4.692;2023-02-15T13:49:17;102462.69;;;12.17;60.03
78383;BME280;67668;52.294;4.692;2023-02-15T13:54:33;102460.19;;;12.27;59.85
78383;BME280;67668;52.294;4.692;2023-02-15T14:05:29;102455.19;;;12.35;58.48
78383;BME280;67668;52.294;4.692;2023-02-15T14:08:08;102448.56;;;12.40;59.98
78383;BME280;67668;52.294;4.692;2023-02-15T14:10:59;102458.22;;;12.41;59.48
78383;BME280;67668;52.294;4.692;2023-02-15T14:16:11;102454.78;;;12.52;59.50
78383;BME280;67668;52.294;4.692;2023-02-15T14:19:04;102453.56;;;12.56;60.02
78383;BME280;67668;52.294;4.692;2023-02-15T14:21:46;102456.72;;;12.61;58.98
78383;BME280;67668;52.294;4.692;2023-02-15T14:24:26;102456.25;;;12.67;58.33
78383;BME280;67668;52.294;4.692;2023-02-15T14:29:53;102447.09;;;12.71;58.27
78383;BME280;67668;52.294;4.692;2023-02-15T14:32:33;102454.34;;;12.69;59.15
78383;BME280;67668;52.294;4.692;2023-02-15T14:35:03;102460.78;;;12.78;59.19
78383;BME280;67668;52.294;4.692;2023-02-15T14:40:30;102454.13;;;12.83;57.70
78383;BME280;67668;52.294;4.692;2023-02-15T14:43:18;102448.09;;;12.81;57.39
78383;BME280;67668;52.294;4.692;2023-02-15T14:48:33;102450.28;;;12.87;57.39
78383;BME280;67668;52.294;4.692;2023-02-15T14:51:04;102446.91;;;12.85;58.43
78383;BME280;67668;52.294;4.692;2023-02-15T14:58:35;102455.94;;;12.83;57.00
78383;BME280;67668;52.294;4.692;2023-02-15T15:01:09;102447.34;;;12.79;57.40
78383;BME280;67668;52.294;4.692;2023-02-15T15:03:36;102445.31;;;12.83;57.72
78383;BME280;67668;52.294;4.692;2023-02-15T15:06:24;102446.63;;;12.77;57.16
78383;BME280;67668;52.294;4.692;2023-02-15T15:08:55;102443.88;;;12.79;58.51
78383;BME280;67668;52.294;4.692;2023-02-15T15:13:58;102448.56;;;12.75;59.30
78383;BME280;67668;52.294;4.692;2023-02-15T15:16:25;102443.97;;;12.77;59.21
78383;BME280;67668;52.294;4.692;2023-02-15T15:18:52;102442.03;;;12.79;58.59
78383;BME280;67668;52.294;4.692;2023-02-15T15:32:51;102430.84;;;12.87;60.46
78383;BME280;67668;52.294;4.692;2023-02-15T15:49:16;102413.19;;;12.75;61.49
78383;BME280;67668;52.294;4.692;2023-02-15T15:51:44;102415.84;;;12.75;61.01